createdAt,value
2022-10-17T00:00:35.561Z,71.55
2022-10-17T00:03:58.373Z,71.59
2022-10-17T00:07:01.202Z,71.58
2022-10-17T00:10:05.824Z,71.63
2022-10-17T00:13:09.656Z,71.63
2022-10-17T00:16:12.506Z,71.67
2022-10-17T00:19:15.321Z,71.75
2022-10-17T00:22:18.205Z,71.77
2022-10-17T00:25:21.038Z,71.77
2022-10-17T00:28:23.888Z,71.76
2022-10-17T00:31:26.852Z,71.80
2022-10-17T00:34:31.191Z,71.84
2022-10-17T00:37:34.591Z,71.93
2022-10-17T00:40:37.491Z,71.89
2022-10-17T00:44:02.141Z,71.74
2022-10-17T00:47:08.511Z,71.84
2022-10-17T00:50:13.058Z,71.94
2022-10-17T00:53:16.849Z,72.05
2022-10-17T00:56:21.256Z,72.10
2022-10-17T00:59:25.032Z,72.15
2022-10-17T01:02:28.127Z,72.28
2022-10-17T01:05:31.251Z,72.38
2022-10-17T01:08:34.544Z,72.34
2022-10-17T01:11:56.973Z,72.33
2022-10-17T01:15:08.855Z,72.50
2022-10-17T01:18:43.200Z,72.43
2022-10-17T01:22:10.158Z,72.57
2022-10-17T01:25:42.689Z,72.63
2022-10-17T01:29:13.255Z,72.66
2022-10-17T01:32:28.130Z,72.68
2022-10-17T01:35:48.568Z,72.68
2022-10-17T01:39:06.134Z,72.67
2022-10-17T01:42:27.408Z,72.69
2022-10-17T01:45:41.228Z,72.65
2022-10-17T01:48:46.250Z,72.62
2022-10-17T01:51:55.726Z,72.59
2022-10-17T01:55:06.975Z,72.55
2022-10-17T01:58:30.089Z,72.51
2022-10-17T02:01:37.506Z,72.53
2022-10-17T02:04:41.397Z,72.55
2022-10-17T02:07:44.302Z,72.51
2022-10-17T02:10:59.223Z,72.51
2022-10-17T02:14:25.104Z,72.41
2022-10-17T02:17:36.362Z,72.32
2022-10-17T02:20:49.642Z,72.30
2022-10-17T02:24:20.409Z,72.29
2022-10-17T02:27:35.358Z,72.31
2022-10-17T02:30:58.406Z,72.29
2022-10-17T02:34:05.074Z,72.21
2022-10-17T02:37:11.502Z,72.19
2022-10-17T02:40:17.587Z,72.18
2022-10-17T02:43:21.980Z,72.23
2022-10-17T02:46:28.014Z,72.22
2022-10-17T02:49:39.210Z,72.20
2022-10-17T02:52:58.120Z,72.23
2022-10-17T02:56:14.327Z,72.25
2022-10-17T02:59:20.771Z,72.20
2022-10-17T03:02:23.685Z,72.13
2022-10-17T03:05:29.144Z,72.17
2022-10-17T03:08:32.098Z,72.28
2022-10-17T03:11:36.308Z,72.22
2022-10-17T03:14:39.317Z,72.15
2022-10-17T03:17:42.932Z,72.19
2022-10-17T03:20:46.137Z,72.21
2022-10-17T03:23:49.131Z,72.21
2022-10-17T03:26:52.459Z,72.25
2022-10-17T03:29:55.694Z,72.29
2022-10-17T03:32:59.514Z,72.33
2022-10-17T03:36:11.643Z,72.37
2022-10-17T03:39:14.723Z,72.47
2022-10-17T03:42:17.714Z,72.51
2022-10-17T03:45:20.850Z,72.55
2022-10-17T03:48:41.433Z,72.63
2022-10-17T03:51:44.549Z,72.64
2022-10-17T03:54:51.014Z,72.70
2022-10-17T03:57:54.196Z,72.66
2022-10-17T04:00:57.238Z,72.65
2022-10-17T04:04:00.234Z,72.69
2022-10-17T04:07:06.058Z,72.77
2022-10-17T04:10:10.993Z,72.72
2022-10-17T04:13:14.227Z,72.74
2022-10-17T04:16:17.362Z,72.76
2022-10-17T04:19:34.238Z,72.76
2022-10-17T04:22:37.484Z,72.76
2022-10-17T04:25:40.603Z,72.86
2022-10-17T04:28:43.533Z,72.93
2022-10-17T04:31:46.642Z,72.98
2022-10-17T04:34:59.602Z,73.01
2022-10-17T04:38:03.602Z,73.03
2022-10-17T04:41:10.277Z,73.02
2022-10-17T04:44:13.217Z,73.06
2022-10-17T04:47:19.074Z,73.10
2022-10-17T04:50:22.255Z,73.07
2022-10-17T04:53:42.587Z,73.04
2022-10-17T04:56:47.206Z,73.05
2022-10-17T04:59:50.133Z,73.01
2022-10-17T05:03:19.048Z,73.01
2022-10-17T05:06:25.070Z,73.01
2022-10-17T05:09:43.101Z,73.01
2022-10-17T05:12:48.157Z,73.03
2022-10-17T05:15:51.957Z,73.03
2022-10-17T05:18:56.783Z,73.06
2022-10-17T05:22:02.925Z,73.06
2022-10-17T05:25:06.473Z,73.00
2022-10-17T05:28:09.777Z,72.97
2022-10-17T05:31:14.134Z,72.94
2022-10-17T05:34:18.018Z,72.93
2022-10-17T05:37:20.970Z,72.96
2022-10-17T05:40:26.276Z,73.06
2022-10-17T05:43:30.127Z,73.10
2022-10-17T05:46:33.023Z,73.14
2022-10-17T05:49:52.438Z,73.20
2022-10-17T05:53:03.439Z,73.18
2022-10-17T05:56:08.994Z,73.14
2022-10-17T05:59:12.833Z,73.15
2022-10-17T06:02:24.863Z,73.15
2022-10-17T06:05:27.873Z,73.23
2022-10-17T06:08:32.324Z,73.30
2022-10-17T06:11:36.368Z,73.35
2022-10-17T06:14:39.253Z,73.50
2022-10-17T06:17:42.734Z,73.53
2022-10-17T06:20:46.219Z,73.58
2022-10-17T06:23:51.559Z,73.68
2022-10-17T06:27:11.008Z,73.68
2022-10-17T06:30:15.345Z,73.67
2022-10-17T06:33:18.313Z,73.71
2022-10-17T06:36:21.384Z,73.84
2022-10-17T06:39:26.941Z,73.86
2022-10-17T06:42:56.411Z,73.85
2022-10-17T06:46:01.783Z,73.77
2022-10-17T06:49:13.029Z,73.71
2022-10-17T06:52:34.887Z,73.71
2022-10-17T06:56:01.611Z,73.80
2022-10-17T06:59:33.471Z,73.83
2022-10-17T07:02:46.337Z,73.83
2022-10-17T07:05:53.495Z,73.79
2022-10-17T07:08:56.385Z,73.73
2022-10-17T07:12:00.636Z,73.70
2022-10-17T07:15:04.987Z,73.68
2022-10-17T07:18:08.282Z,73.71
2022-10-17T07:21:11.327Z,73.75
2022-10-17T07:24:16.072Z,73.57
2022-10-17T07:27:23.326Z,73.52
2022-10-17T07:30:27.263Z,73.26
2022-10-17T07:33:38.613Z,73.12
2022-10-17T07:36:41.709Z,72.86
2022-10-17T07:39:44.976Z,72.62
2022-10-17T07:42:48.327Z,72.62
2022-10-17T07:45:52.600Z,72.66
2022-10-17T07:48:55.415Z,72.48
2022-10-17T07:51:58.491Z,72.28
2022-10-17T07:55:01.548Z,72.12
2022-10-17T07:58:04.429Z,71.85
2022-10-17T08:01:14.751Z,71.76
2022-10-17T08:04:18.553Z,71.77
2022-10-17T08:07:25.312Z,71.61
2022-10-17T08:10:31.339Z,71.44
2022-10-17T08:13:34.579Z,71.55
2022-10-17T08:16:37.506Z,71.38
2022-10-17T08:19:40.812Z,71.32
2022-10-17T08:22:43.785Z,71.04
2022-10-17T08:25:47.047Z,70.84
2022-10-17T08:28:49.906Z,70.66
2022-10-17T08:31:56.289Z,70.44
2022-10-17T08:35:04.460Z,70.36
2022-10-17T08:38:09.950Z,70.25
2022-10-17T08:41:36.568Z,70.19
2022-10-17T08:44:57.425Z,70.16
2022-10-17T08:48:02.613Z,69.92
2022-10-17T08:59:59.696Z,69.11
2022-10-17T09:03:16.742Z,68.77
2022-10-17T09:06:29.978Z,68.51
2022-10-17T09:09:50.144Z,68.23
2022-10-17T09:13:10.540Z,67.77
2022-10-17T09:16:36.882Z,67.48
2022-10-17T09:19:43.575Z,67.34
2022-10-17T09:23:06.015Z,67.21
2022-10-17T09:26:11.152Z,66.96
2022-10-17T09:29:21.384Z,66.72
2022-10-17T09:32:24.657Z,66.47
2022-10-17T09:35:29.616Z,66.41
2022-10-17T09:38:39.766Z,66.56
2022-10-17T09:41:51.437Z,66.63
2022-10-17T09:45:16.099Z,66.34
2022-10-17T09:48:34.476Z,66.41
2022-10-17T09:51:38.090Z,66.40
2022-10-17T09:54:52.661Z,66.29
2022-10-17T09:58:10.111Z,66.26
2022-10-17T10:01:23.996Z,66.25
2022-10-17T10:04:30.244Z,66.20
2022-10-17T10:07:51.605Z,66.20
2022-10-17T10:11:00.095Z,66.34
2022-10-17T10:14:34.035Z,66.05
2022-10-17T10:18:26.178Z,65.90
2022-10-17T10:21:28.183Z,65.93
2022-10-17T10:25:17.087Z,66.01
2022-10-17T10:28:25.678Z,66.07
2022-10-17T10:31:39.197Z,65.87
2022-10-17T10:35:18.636Z,65.53
2022-10-17T10:38:22.452Z,65.39
2022-10-17T10:41:48.167Z,64.82
2022-10-17T10:44:56.036Z,64.60
2022-10-17T10:48:19.168Z,64.11
2022-10-17T10:51:27.089Z,63.90
2022-10-17T10:54:36.049Z,63.38
2022-10-17T10:57:44.348Z,63.18
2022-10-17T11:00:47.291Z,63.04
2022-10-17T11:04:23.043Z,62.81
2022-10-17T11:07:46.408Z,62.86
2022-10-17T11:11:13.171Z,62.72
2022-10-17T11:14:31.266Z,62.68
2022-10-17T11:17:56.325Z,62.80
2022-10-17T11:21:16.119Z,62.62
2022-10-17T11:24:29.341Z,62.46
2022-10-17T11:27:33.375Z,62.75
2022-10-17T11:30:45.999Z,62.77
2022-10-17T11:33:53.487Z,62.66
2022-10-17T11:37:09.097Z,62.45
2022-10-17T11:40:44.517Z,62.51
2022-10-17T11:44:02.747Z,62.42
2022-10-17T11:47:25.659Z,62.40
2022-10-17T11:54:22.733Z,62.39
2022-10-17T11:57:44.794Z,62.39
2022-10-17T12:00:56.122Z,62.39
2022-10-17T12:04:06.786Z,62.35
2022-10-17T12:07:21.694Z,62.34
2022-10-17T12:10:47.928Z,62.23
2022-10-17T12:13:53.885Z,62.28
2022-10-17T12:16:55.476Z,62.17
2022-10-17T12:20:25.024Z,62.27
2022-10-17T12:23:28.361Z,62.36
2022-10-17T12:26:30.259Z,62.13
2022-10-17T12:29:32.038Z,62.07
2022-10-17T12:32:46.848Z,62.09
2022-10-17T12:36:28.082Z,61.87
2022-10-17T12:39:29.549Z,61.93
2022-10-17T12:42:32.557Z,61.60
2022-10-17T12:46:02.911Z,61.46
2022-10-17T12:49:20.343Z,61.50
2022-10-17T12:52:34.812Z,61.63
2022-10-17T12:55:36.710Z,61.47
2022-10-17T12:58:48.828Z,61.46
2022-10-17T13:02:01.179Z,61.32
2022-10-17T13:05:18.797Z,61.32
2022-10-17T13:08:34.041Z,61.52
2022-10-17T13:12:21.327Z,61.52
2022-10-17T13:15:23.305Z,61.53
2022-10-17T13:18:31.982Z,61.30
2022-10-17T13:26:45.495Z,61.77
2022-10-17T13:29:48.008Z,61.53
2022-10-17T13:32:49.829Z,61.36
2022-10-17T13:36:06.939Z,61.45
2022-10-17T13:39:14.993Z,61.47
2022-10-17T13:42:30.548Z,61.45
2022-10-17T13:45:37.674Z,61.50
2022-10-17T13:54:55.396Z,62.51
2022-10-17T14:04:19.472Z,62.01
2022-10-17T14:18:20.235Z,62.21
2022-10-17T14:21:40.900Z,62.20
2022-10-17T14:24:47.070Z,62.17
2022-10-17T14:28:02.293Z,62.32
2022-10-17T14:31:20.274Z,62.39
2022-10-17T14:34:29.923Z,62.46
2022-10-17T14:37:46.421Z,62.62
2022-10-17T14:40:51.750Z,62.62
2022-10-17T14:44:00.926Z,62.78
2022-10-17T14:47:30.906Z,62.84
2022-10-17T14:50:31.976Z,62.71
2022-10-17T14:53:34.965Z,62.80
2022-10-17T14:56:41.801Z,62.80
2022-10-17T15:00:00.167Z,62.87
2022-10-17T15:03:03.068Z,63.01
2022-10-17T15:06:24.636Z,63.11
2022-10-17T15:09:29.013Z,63.19
2022-10-17T15:12:32.883Z,63.23
2022-10-17T15:15:37.390Z,63.35
2022-10-17T15:18:40.234Z,63.46
2022-10-17T15:21:46.949Z,63.62
2022-10-17T15:24:50.516Z,63.80
2022-10-17T15:27:54.387Z,63.94
2022-10-17T15:30:57.249Z,64.10
2022-10-17T15:34:00.146Z,64.26
2022-10-17T15:37:04.799Z,64.64
2022-10-17T15:40:14.686Z,65.10
2022-10-17T15:43:19.911Z,65.45
2022-10-17T15:46:28.778Z,65.76
2022-10-17T15:49:31.606Z,66.01
2022-10-17T15:52:35.409Z,66.40
2022-10-17T15:55:38.299Z,66.65
2022-10-17T15:58:41.141Z,66.86
2022-10-17T16:01:44.660Z,67.02
2022-10-17T16:04:49.389Z,67.15
2022-10-17T16:07:53.692Z,67.33
2022-10-17T16:10:56.649Z,67.51
2022-10-17T16:14:02.385Z,67.69
2022-10-17T16:17:05.241Z,67.87
2022-10-17T16:20:08.405Z,68.00
2022-10-17T16:23:13.408Z,68.18
2022-10-17T16:26:16.370Z,68.38
2022-10-17T16:29:19.162Z,68.44
2022-10-17T16:32:22.044Z,68.48
2022-10-17T16:35:31.867Z,68.55
2022-10-17T16:38:38.053Z,68.71
2022-10-17T16:41:41.292Z,68.90
2022-10-17T16:44:44.638Z,69.03
2022-10-17T16:47:50.776Z,69.11
2022-10-17T16:50:54.082Z,69.19
2022-10-17T16:54:00.223Z,69.26
2022-10-17T16:57:05.814Z,69.29
2022-10-17T17:00:12.159Z,69.35
2022-10-17T17:03:15.908Z,69.41
2022-10-17T17:06:29.497Z,69.46
2022-10-17T17:09:32.666Z,69.40
2022-10-17T17:12:40.203Z,69.37
2022-10-17T17:18:51.472Z,69.30
2022-10-17T17:21:54.488Z,69.35
2022-10-17T17:24:57.478Z,69.38
2022-10-17T17:28:03.454Z,69.38
2022-10-17T17:31:09.191Z,69.33
2022-10-17T17:34:14.345Z,69.35
2022-10-17T17:37:20.211Z,69.35
2022-10-17T17:40:23.318Z,69.33
2022-10-17T17:43:26.283Z,69.49
2022-10-17T17:46:29.255Z,69.36
2022-10-17T17:49:32.400Z,69.43
2022-10-17T17:52:35.581Z,69.44
2022-10-17T17:55:41.010Z,69.46
2022-10-17T17:59:01.559Z,69.42
2022-10-17T18:02:07.050Z,69.46
2022-10-17T18:05:10.308Z,69.36
2022-10-17T18:08:13.271Z,69.35
2022-10-17T18:11:18.408Z,69.34
2022-10-17T18:14:24.261Z,69.37
2022-10-17T18:17:27.738Z,69.38
2022-10-17T18:20:30.515Z,69.37
2022-10-17T18:23:37.584Z,69.37
2022-10-17T18:26:40.405Z,69.40
2022-10-17T18:29:46.243Z,69.36
2022-10-17T18:32:49.095Z,69.40
2022-10-17T18:35:51.915Z,69.41
2022-10-17T18:38:55.567Z,69.46
2022-10-17T18:41:58.456Z,69.47
2022-10-17T18:45:05.914Z,69.47
2022-10-17T18:48:10.327Z,69.44
2022-10-17T18:51:15.433Z,69.40
2022-10-17T18:54:21.445Z,69.40
2022-10-17T18:57:26.173Z,69.35
2022-10-17T19:00:31.838Z,69.31
2022-10-17T19:03:34.903Z,69.33
2022-10-17T19:06:38.897Z,69.33
2022-10-17T19:09:43.601Z,69.34
2022-10-17T19:12:47.561Z,69.40
2022-10-17T19:15:53.753Z,69.42
2022-10-17T19:18:59.219Z,69.46
2022-10-17T19:22:03.574Z,69.41
2022-10-17T19:25:07.498Z,69.34
2022-10-17T19:28:10.553Z,69.24
2022-10-17T19:31:16.977Z,69.11
2022-10-17T19:34:20.881Z,69.03
2022-10-17T19:37:24.036Z,68.93
2022-10-17T19:40:27.594Z,68.82
2022-10-17T19:43:30.991Z,68.71
2022-10-17T19:46:37.784Z,68.46
2022-10-17T19:49:47.692Z,68.40
2022-10-17T19:52:54.686Z,68.22
2022-10-17T19:55:58.374Z,68.16
2022-10-17T19:59:02.464Z,68.15
2022-10-17T20:02:06.198Z,67.97
2022-10-17T20:05:18.389Z,68.07
2022-10-17T20:08:21.954Z,68.04
2022-10-17T20:11:27.320Z,68.00
2022-10-17T20:14:35.226Z,68.16
2022-10-17T20:17:42.659Z,68.14
2022-10-17T20:20:48.053Z,68.13
2022-10-17T20:23:51.877Z,68.05
2022-10-17T20:26:54.928Z,67.94
2022-10-17T20:30:01.788Z,67.84
2022-10-17T20:33:07.923Z,67.83
2022-10-17T20:36:13.165Z,67.79
2022-10-17T20:39:19.965Z,67.70
2022-10-17T20:42:22.829Z,67.71
2022-10-17T20:45:37.703Z,67.66
2022-10-17T20:48:55.306Z,67.73
2022-10-17T20:52:01.540Z,67.69
2022-10-17T20:55:05.018Z,67.75
2022-10-17T20:58:14.501Z,67.77
2022-10-17T21:01:18.129Z,67.79
2022-10-17T21:04:44.610Z,67.89
2022-10-17T21:07:49.859Z,67.78
2022-10-17T21:11:10.200Z,67.63
2022-10-17T21:14:16.842Z,67.43
2022-10-17T21:17:21.851Z,67.31
2022-10-17T21:20:27.219Z,67.08
2022-10-17T21:23:30.426Z,66.82
2022-10-17T21:26:37.310Z,66.82
2022-10-17T21:29:41.728Z,67.03
2022-10-17T21:32:51.608Z,66.86
2022-10-17T21:35:55.341Z,66.72
2022-10-17T21:39:00.188Z,66.73
2022-10-17T21:42:06.122Z,66.70
2022-10-17T21:45:15.369Z,66.56
2022-10-17T21:48:23.040Z,66.26
2022-10-17T21:51:26.948Z,66.19
2022-10-17T21:54:29.849Z,66.33
2022-10-17T21:57:32.759Z,66.06
2022-10-17T22:00:35.539Z,65.87
2022-10-17T22:03:44.088Z,66.00
2022-10-17T22:06:51.363Z,66.09
2022-10-17T22:09:54.286Z,66.20
2022-10-17T22:12:57.391Z,65.90
2022-10-17T22:16:01.736Z,65.71
2022-10-17T22:19:06.772Z,65.56
2022-10-17T22:22:09.839Z,65.63
2022-10-17T22:25:12.754Z,65.64
2022-10-17T22:28:15.755Z,65.46
2022-10-17T22:31:19.509Z,65.43
2022-10-17T22:34:22.388Z,65.39
2022-10-17T22:37:25.268Z,65.38
2022-10-17T22:40:28.165Z,65.22
2022-10-17T22:43:31.532Z,65.18
2022-10-17T22:46:37.051Z,65.12
2022-10-17T22:49:39.948Z,65.09
2022-10-17T22:52:42.871Z,65.03
2022-10-17T22:55:56.254Z,64.97
2022-10-17T22:58:59.192Z,64.83
2022-10-17T23:02:02.250Z,64.77
2022-10-17T23:05:07.455Z,64.76
2022-10-17T23:08:11.413Z,64.77
2022-10-17T23:11:14.360Z,64.73
2022-10-17T23:14:17.361Z,64.81
2022-10-17T23:17:20.255Z,64.80
2022-10-17T23:20:23.166Z,64.67
2022-10-17T23:23:26.249Z,64.65
2022-10-17T23:26:29.124Z,64.73
2022-10-17T23:29:33.376Z,64.85
2022-10-17T23:32:36.244Z,64.86
2022-10-17T23:35:39.166Z,64.94
2022-10-17T23:38:43.442Z,65.25
2022-10-17T23:41:46.521Z,65.43
2022-10-17T23:44:49.477Z,65.60
2022-10-17T23:47:52.341Z,65.61
2022-10-17T23:50:56.105Z,65.77
2022-10-17T23:53:59.260Z,65.85
2022-10-17T23:57:02.211Z,65.85
